sensor_id;sensor_type;location;lat;lon;timestamp;P1;durP1;ratioP1;P2;durP2;ratioP2
36833;SDS011;48003;52.084;5.224;2023-12-22T00:01:07;10.1;;;1.8;;
36833;SDS011;48003;52.084;5.224;2023-12-22T00:02:44;11.7;;;2.0;;
36833;SDS011;48003;52.084;5.224;2023-12-22T00:04:21;11.0;;;1.7;;
36833;SDS011;48003;52.084;5.224;2023-12-22T00:07:33;10.21;;;1.8;;
36833;SDS011;48003;52.084;5.224;2023-12-22T00:09:09;11.2;;;1.8;;
36833;SDS011;48003;52.084;5.224;2023-12-22T00:10:45;12.0;;;1.6;;
36833;SDS011;48003;52.084;5.224;2023-12-22T00:13:57;9.9;;;1.5;;
36833;SDS011;48003;52.084;5.224;2023-12-22T00:15:33;12.7;;;1.6;;
36833;SDS011;48003;52.084;5.224;2023-12-22T00:17:10;12.9;;;1.8;;
36833;SDS011;48003;52.084;5.224;2023-12-22T00:18:46;15.2;;;2.31;;
36833;SDS011;48003;52.084;5.224;2023-12-22T00:21:58;11.6;;;2.0;;
36833;SDS011;48003;52.084;5.224;2023-12-22T00:23:34;11.7;;;1.8;;
36833;SDS011;48003;52.084;5.224;2023-12-22T00:25:10;10.3;;;1.8;;
36833;SDS011;48003;52.084;5.224;2023-12-22T00:28:22;9.9;;;1.8;;
36833;SDS011;48003;52.084;5.224;2023-12-22T00:29:58;12.1;;;2.0;;
36833;SDS011;48003;52.084;5.224;2023-12-22T00:31:34;9.71;;;1.4;;
36833;SDS011;48003;52.084;5.224;2023-12-22T00:34:47;4.61;;;0.9;;
36833;SDS011;48003;52.084;5.224;2023-12-22T00:36:23;6.1;;;1.0;;
36833;SDS011;48003;52.084;5.224;2023-12-22T00:37:59;4.3;;;0.5;;
36833;SDS011;48003;52.084;5.224;2023-12-22T00:41:11;6.7;;;1.0;;
36833;SDS011;48003;52.084;5.224;2023-12-22T00:42:47;5.3;;;0.7;;
36833;SDS011;48003;52.084;5.224;2023-12-22T00:44:23;5.5;;;0.9;;
36833;SDS011;48003;52.084;5.224;2023-12-22T00:45:59;3.9;;;0.7;;
36833;SDS011;48003;52.084;5.224;2023-12-22T00:49:11;9.31;;;1.3;;
36833;SDS011;48003;52.084;5.224;2023-12-22T00:50:48;6.2;;;1.11;;
36833;SDS011;48003;52.084;5.224;2023-12-22T00:52:24;5.5;;;1.11;;
36833;SDS011;48003;52.084;5.224;2023-12-22T00:55:36;6.7;;;1.3;;
36833;SDS011;48003;52.084;5.224;2023-12-22T00:57:12;6.4;;;1.2;;
36833;SDS011;48003;52.084;5.224;2023-12-22T00:58:49;6.4;;;1.5;;
36833;SDS011;48003;52.084;5.224;2023-12-22T01:02:05;9.9;;;1.5;;
36833;SDS011;48003;52.084;5.224;2023-12-22T01:03:40;7.1;;;1.4;;
36833;SDS011;48003;52.084;5.224;2023-12-22T01:05:17;11.3;;;1.4;;
36833;SDS011;48003;52.084;5.224;2023-12-22T01:06:53;11.8;;;1.5;;
36833;SDS011;48003;52.084;5.224;2023-12-22T01:10:05;10.1;;;1.6;;
36833;SDS011;48003;52.084;5.224;2023-12-22T01:11:42;10.1;;;1.7;;
36833;SDS011;48003;52.084;5.224;2023-12-22T01:13:18;7.8;;;1.4;;
36833;SDS011;48003;52.084;5.224;2023-12-22T01:16:30;11.1;;;1.7;;
36833;SDS011;48003;52.084;5.224;2023-12-22T01:18:06;6.6;;;1.2;;
36833;SDS011;48003;52.084;5.224;2023-12-22T01:19:42;14.3;;;2.31;;
36833;SDS011;48003;52.084;5.224;2023-12-22T01:22:58;8.81;;;1.9;;
36833;SDS011;48003;52.084;5.224;2023-12-22T01:24:34;13.3;;;2.0;;
36833;SDS011;48003;52.084;5.224;2023-12-22T01:26:10;15.0;;;1.7;;
36833;SDS011;48003;52.084;5.224;2023-12-22T01:27:46;10.9;;;1.8;;
36833;SDS011;48003;52.084;5.224;2023-12-22T01:30:58;12.4;;;1.9;;
36833;SDS011;48003;52.084;5.224;2023-12-22T01:32:34;12.8;;;1.6;;
36833;SDS011;48003;52.084;5.224;2023-12-22T01:34:10;12.5;;;1.6;;
36833;SDS011;48003;52.084;5.224;2023-12-22T01:37:23;12.6;;;1.9;;
36833;SDS011;48003;52.084;5.224;2023-12-22T01:38:59;12.1;;;1.8;;
36833;SDS011;48003;52.084;5.224;2023-12-22T01:40:35;12.2;;;1.9;;
36833;SDS011;48003;52.084;5.224;2023-12-22T01:43:47;13.9;;;1.8;;
36833;SDS011;48003;52.084;5.224;2023-12-22T01:45:26;12.9;;;1.8;;
36833;SDS011;48003;52.084;5.224;2023-12-22T01:47:02;18.11;;;2.0;;
36833;SDS011;48003;52.084;5.224;2023-12-22T01:48:39;11.8;;;1.9;;
36833;SDS011;48003;52.084;5.224;2023-12-22T01:51:52;17.91;;;2.1;;
36833;SDS011;48003;52.084;5.224;2023-12-22T01:53:28;13.5;;;1.8;;
36833;SDS011;48003;52.084;5.224;2023-12-22T01:55:07;16.7;;;2.4;;
36833;SDS011;48003;52.084;5.224;2023-12-22T01:58:24;16.11;;;2.1;;
36833;SDS011;48003;52.084;5.224;2023-12-22T02:00:01;16.9;;;2.0;;
36833;SDS011;48003;52.084;5.224;2023-12-22T02:01:38;15.3;;;2.1;;
36833;SDS011;48003;52.084;5.224;2023-12-22T02:04:52;15.0;;;2.1;;
36833;SDS011;48003;52.084;5.224;2023-12-22T02:06:30;16.4;;;2.5;;
36833;SDS011;48003;52.084;5.224;2023-12-22T02:08:09;11.5;;;1.8;;
36833;SDS011;48003;52.084;5.224;2023-12-22T02:09:46;15.4;;;2.31;;
36833;SDS011;48003;52.084;5.224;2023-12-22T02:12:59;18.3;;;2.5;;
36833;SDS011;48003;52.084;5.224;2023-12-22T02:14:35;18.61;;;2.5;;
36833;SDS011;48003;52.084;5.224;2023-12-22T02:16:11;18.5;;;2.31;;
36833;SDS011;48003;52.084;5.224;2023-12-22T02:19:40;15.7;;;2.8;;
36833;SDS011;48003;52.084;5.224;2023-12-22T02:21:18;18.91;;;2.6;;
36833;SDS011;48003;52.084;5.224;2023-12-22T02:22:54;16.2;;;3.0;;
36833;SDS011;48003;52.084;5.224;2023-12-22T02:24:30;19.8;;;3.1;;
36833;SDS011;48003;52.084;5.224;2023-12-22T02:27:53;17.11;;;2.8;;
36833;SDS011;48003;52.084;5.224;2023-12-22T02:29:37;16.61;;;2.7;;
36833;SDS011;48003;52.084;5.224;2023-12-22T02:31:22;18.5;;;3.1;;
36833;SDS011;48003;52.084;5.224;2023-12-22T02:33:11;23.6;;;3.1;;
36833;SDS011;48003;52.084;5.224;2023-12-22T02:34:53;27.3;;;3.7;;
36833;SDS011;48003;52.084;5.224;2023-12-22T02:38:11;20.8;;;3.1;;
36833;SDS011;48003;52.084;5.224;2023-12-22T02:39:48;21.4;;;3.3;;
36833;SDS011;48003;52.084;5.224;2023-12-22T02:41:25;22.6;;;3.4;;
36833;SDS011;48003;52.084;5.224;2023-12-22T02:44:39;23.0;;;3.6;;
36833;SDS011;48003;52.084;5.224;2023-12-22T02:46:15;21.0;;;3.1;;
36833;SDS011;48003;52.084;5.224;2023-12-22T02:47:51;17.2;;;2.9;;
36833;SDS011;48003;52.084;5.224;2023-12-22T02:49:27;19.2;;;3.0;;
36833;SDS011;48003;52.084;5.224;2023-12-22T02:52:39;18.61;;;2.9;;
36833;SDS011;48003;52.084;5.224;2023-12-22T02:54:16;23.6;;;3.5;;
36833;SDS011;48003;52.084;5.224;2023-12-22T02:55:52;20.5;;;2.9;;
36833;SDS011;48003;52.084;5.224;2023-12-22T02:59:04;17.91;;;2.8;;
36833;SDS011;48003;52.084;5.224;2023-12-22T03:00:41;17.41;;;2.7;;
36833;SDS011;48003;52.084;5.224;2023-12-22T03:02:17;18.3;;;2.7;;
36833;SDS011;48003;52.084;5.224;2023-12-22T03:05:29;18.11;;;2.8;;
36833;SDS011;48003;52.084;5.224;2023-12-22T03:07:05;20.41;;;3.0;;
36833;SDS011;48003;52.084;5.224;2023-12-22T03:08:41;19.11;;;3.0;;
36833;SDS011;48003;52.084;5.224;2023-12-22T03:10:17;16.61;;;2.5;;
36833;SDS011;48003;52.084;5.224;2023-12-22T03:13:29;18.0;;;3.3;;
36833;SDS011;48003;52.084;5.224;2023-12-22T03:15:06;23.3;;;3.1;;
36833;SDS011;48003;52.084;5.224;2023-12-22T03:16:43;16.0;;;2.9;;
36833;SDS011;48003;52.084;5.224;2023-12-22T03:19:55;18.7;;;3.0;;
36833;SDS011;48003;52.084;5.224;2023-12-22T03:21:31;18.91;;;3.0;;
36833;SDS011;48003;52.084;5.224;2023-12-22T03:23:07;16.0;;;2.8;;
36833;SDS011;48003;52.084;5.224;2023-12-22T03:26:19;17.0;;;2.7;;
36833;SDS011;48003;52.084;5.224;2023-12-22T03:27:55;16.0;;;2.7;;
36833;SDS011;48003;52.084;5.224;2023-12-22T03:29:32;19.8;;;3.3;;
36833;SDS011;48003;52.084;5.224;2023-12-22T03:32:44;17.8;;;3.4;;
36833;SDS011;48003;52.084;5.224;2023-12-22T03:34:20;24.1;;;3.5;;
36833;SDS011;48003;52.084;5.224;2023-12-22T03:35:56;24.1;;;4.0;;
36833;SDS011;48003;52.084;5.224;2023-12-22T03:37:32;28.6;;;3.6;;
36833;SDS011;48003;52.084;5.224;2023-12-22T03:40:44;20.7;;;3.2;;
36833;SDS011;48003;52.084;5.224;2023-12-22T03:42:21;18.2;;;3.3;;
36833;SDS011;48003;52.084;5.224;2023-12-22T03:43:57;21.8;;;3.6;;
36833;SDS011;48003;52.084;5.224;2023-12-22T03:47:13;17.5;;;3.2;;
36833;SDS011;48003;52.084;5.224;2023-12-22T03:48:49;17.8;;;2.9;;
36833;SDS011;48003;52.084;5.224;2023-12-22T03:50:25;22.5;;;3.1;;
36833;SDS011;48003;52.084;5.224;2023-12-22T03:53:37;19.11;;;2.9;;
36833;SDS011;48003;52.084;5.224;2023-12-22T03:55:13;19.8;;;3.5;;
36833;SDS011;48003;52.084;5.224;2023-12-22T03:56:49;18.8;;;2.8;;
36833;SDS011;48003;52.084;5.224;2023-12-22T03:58:30;21.6;;;3.1;;
36833;SDS011;48003;52.084;5.224;2023-12-22T04:01:44;14.7;;;2.8;;
36833;SDS011;48003;52.084;5.224;2023-12-22T04:03:20;18.91;;;3.0;;
36833;SDS011;48003;52.084;5.224;2023-12-22T04:04:56;23.4;;;3.3;;
36833;SDS011;48003;52.084;5.224;2023-12-22T04:08:08;23.1;;;3.5;;
36833;SDS011;48003;52.084;5.224;2023-12-22T04:09:44;21.7;;;3.2;;
36833;SDS011;48003;52.084;5.224;2023-12-22T04:11:20;18.8;;;3.3;;
36833;SDS011;48003;52.084;5.224;2023-12-22T04:14:33;14.5;;;2.9;;
36833;SDS011;48003;52.084;5.224;2023-12-22T04:16:09;20.5;;;3.6;;
36833;SDS011;48003;52.084;5.224;2023-12-22T04:17:45;18.7;;;3.0;;
36833;SDS011;48003;52.084;5.224;2023-12-22T04:19:21;19.2;;;2.8;;
36833;SDS011;48003;52.084;5.224;2023-12-22T04:22:34;16.5;;;3.0;;
36833;SDS011;48003;52.084;5.224;2023-12-22T04:24:10;19.8;;;2.5;;
36833;SDS011;48003;52.084;5.224;2023-12-22T04:25:46;18.5;;;2.5;;
36833;SDS011;48003;52.084;5.224;2023-12-22T04:28:59;18.5;;;3.2;;
36833;SDS011;48003;52.084;5.224;2023-12-22T04:30:35;17.5;;;2.6;;
36833;SDS011;48003;52.084;5.224;2023-12-22T04:32:11;24.8;;;3.1;;
36833;SDS011;48003;52.084;5.224;2023-12-22T04:35:23;18.8;;;2.8;;
36833;SDS011;48003;52.084;5.224;2023-12-22T04:36:59;15.2;;;2.8;;
36833;SDS011;48003;52.084;5.224;2023-12-22T04:38:35;14.4;;;2.7;;
36833;SDS011;48003;52.084;5.224;2023-12-22T04:41:48;15.2;;;3.1;;
36833;SDS011;48003;52.084;5.224;2023-12-22T04:43:27;18.7;;;2.9;;
36833;SDS011;48003;52.084;5.224;2023-12-22T04:45:03;16.7;;;2.8;;
36833;SDS011;48003;52.084;5.224;2023-12-22T04:46:40;15.8;;;2.9;;
36833;SDS011;48003;52.084;5.224;2023-12-22T04:49:52;17.8;;;3.0;;
36833;SDS011;48003;52.084;5.224;2023-12-22T04:51:28;16.3;;;2.8;;
36833;SDS011;48003;52.084;5.224;2023-12-22T04:53:04;19.3;;;3.0;;
36833;SDS011;48003;52.084;5.224;2023-12-22T04:56:16;17.2;;;2.9;;
36833;SDS011;48003;52.084;5.224;2023-12-22T04:57:52;15.5;;;3.2;;
36833;SDS011;48003;52.084;5.224;2023-12-22T04:59:29;17.61;;;3.1;;
36833;SDS011;48003;52.084;5.224;2023-12-22T05:02:41;22.9;;;3.0;;
36833;SDS011;48003;52.084;5.224;2023-12-22T05:04:17;18.11;;;2.7;;
36833;SDS011;48003;52.084;5.224;2023-12-22T05:05:56;21.1;;;2.8;;
36833;SDS011;48003;52.084;5.224;2023-12-22T05:07:32;15.4;;;2.4;;
36833;SDS011;48003;52.084;5.224;2023-12-22T05:10:44;14.2;;;2.5;;
36833;SDS011;48003;52.084;5.224;2023-12-22T05:12:21;13.3;;;2.7;;
36833;SDS011;48003;52.084;5.224;2023-12-22T05:13:57;13.3;;;2.4;;
36833;SDS011;48003;52.084;5.224;2023-12-22T05:17:09;14.3;;;2.5;;
36833;SDS011;48003;52.084;5.224;2023-12-22T05:18:45;15.2;;;2.5;;
36833;SDS011;48003;52.084;5.224;2023-12-22T05:20:22;17.3;;;2.31;;
36833;SDS011;48003;52.084;5.224;2023-12-22T05:23:34;12.9;;;2.4;;
36833;SDS011;48003;52.084;5.224;2023-12-22T05:25:12;15.6;;;2.31;;
36833;SDS011;48003;52.084;5.224;2023-12-22T05:26:49;18.7;;;2.7;;
36833;SDS011;48003;52.084;5.224;2023-12-22T05:28:25;15.4;;;2.4;;
36833;SDS011;48003;52.084;5.224;2023-12-22T05:31:38;10.0;;;2.1;;
36833;SDS011;48003;52.084;5.224;2023-12-22T05:33:14;18.3;;;2.8;;
36833;SDS011;48003;52.084;5.224;2023-12-22T05:34:50;12.5;;;2.1;;
36833;SDS011;48003;52.084;5.224;2023-12-22T05:38:03;12.2;;;1.9;;
36833;SDS011;48003;52.084;5.224;2023-12-22T05:39:39;13.9;;;2.0;;
36833;SDS011;48003;52.084;5.224;2023-12-22T05:41:15;11.9;;;2.31;;
36833;SDS011;48003;52.084;5.224;2023-12-22T05:44:27;17.3;;;2.4;;
36833;SDS011;48003;52.084;5.224;2023-12-22T05:46:03;17.3;;;2.4;;
36833;SDS011;48003;52.084;5.224;2023-12-22T05:47:39;15.9;;;2.7;;
36833;SDS011;48003;52.084;5.224;2023-12-22T05:49:15;11.3;;;2.1;;
36833;SDS011;48003;52.084;5.224;2023-12-22T05:52:28;13.4;;;2.4;;
36833;SDS011;48003;52.084;5.224;2023-12-22T05:54:04;13.4;;;2.4;;
36833;SDS011;48003;52.084;5.224;2023-12-22T05:55:41;11.3;;;2.0;;
36833;SDS011;48003;52.084;5.224;2023-12-22T05:58:53;14.6;;;2.21;;
36833;SDS011;48003;52.084;5.224;2023-12-22T06:00:29;18.2;;;2.6;;
36833;SDS011;48003;52.084;5.224;2023-12-22T06:02:05;17.11;;;2.6;;
36833;SDS011;48003;52.084;5.224;2023-12-22T06:05:17;17.8;;;2.5;;
36833;SDS011;48003;52.084;5.224;2023-12-22T06:06:54;19.61;;;2.8;;
36833;SDS011;48003;52.084;5.224;2023-12-22T06:08:30;19.61;;;2.5;;
36833;SDS011;48003;52.084;5.224;2023-12-22T06:11:43;15.1;;;2.7;;
36833;SDS011;48003;52.084;5.224;2023-12-22T06:13:22;17.11;;;2.6;;
36833;SDS011;48003;52.084;5.224;2023-12-22T06:14:58;14.6;;;2.5;;
36833;SDS011;48003;52.084;5.224;2023-12-22T06:16:34;19.5;;;2.8;;
36833;SDS011;48003;52.084;5.224;2023-12-22T06:19:47;16.4;;;2.5;;
36833;SDS011;48003;52.084;5.224;2023-12-22T06:21:23;17.8;;;2.7;;
36833;SDS011;48003;52.084;5.224;2023-12-22T06:22:59;17.5;;;2.8;;
36833;SDS011;48003;52.084;5.224;2023-12-22T06:26:11;16.7;;;2.8;;
36833;SDS011;48003;52.084;5.224;2023-12-22T06:27:47;12.3;;;2.5;;
36833;SDS011;48003;52.084;5.224;2023-12-22T06:29:23;14.1;;;2.8;;
36833;SDS011;48003;52.084;5.224;2023-12-22T06:32:36;16.61;;;3.1;;
36833;SDS011;48003;52.084;5.224;2023-12-22T06:34:12;14.5;;;2.5;;
36833;SDS011;48003;52.084;5.224;2023-12-22T06:35:48;17.5;;;3.8;;
36833;SDS011;48003;52.084;5.224;2023-12-22T06:37:24;18.7;;;2.9;;
36833;SDS011;48003;52.084;5.224;2023-12-22T06:40:36;20.41;;;3.3;;
36833;SDS011;48003;52.084;5.224;2023-12-22T06:42:13;18.8;;;2.9;;
36833;SDS011;48003;52.084;5.224;2023-12-22T06:43:49;14.8;;;3.0;;
36833;SDS011;48003;52.084;5.224;2023-12-22T06:47:01;21.0;;;3.4;;
36833;SDS011;48003;52.084;5.224;2023-12-22T06:48:38;18.7;;;3.3;;
36833;SDS011;48003;52.084;5.224;2023-12-22T06:50:14;20.5;;;3.8;;
36833;SDS011;48003;52.084;5.224;2023-12-22T06:53:26;16.4;;;3.2;;
36833;SDS011;48003;52.084;5.224;2023-12-22T06:55:02;22.7;;;4.0;;
36833;SDS011;48003;52.084;5.224;2023-12-22T06:56:38;20.7;;;3.5;;
36833;SDS011;48003;52.084;5.224;2023-12-22T06:59:50;21.3;;;4.0;;
36833;SDS011;48003;52.084;5.224;2023-12-22T07:01:27;23.0;;;3.8;;
36833;SDS011;48003;52.084;5.224;2023-12-22T07:03:05;20.7;;;3.7;;
36833;SDS011;48003;52.084;5.224;2023-12-22T07:04:42;16.8;;;3.2;;
36833;SDS011;48003;52.084;5.224;2023-12-22T07:07:17;26.1;;;4.2;;
36833;SDS011;48003;52.084;5.224;2023-12-22T07:09:30;26.8;;;3.5;;
36833;SDS011;48003;52.084;5.224;2023-12-22T07:11:06;28.0;;;4.0;;
36833;SDS011;48003;52.084;5.224;2023-12-22T07:14:18;22.8;;;4.5;;
36833;SDS011;48003;52.084;5.224;2023-12-22T07:15:54;23.2;;;4.1;;
36833;SDS011;48003;52.084;5.224;2023-12-22T07:17:31;30.2;;;4.5;;
36833;SDS011;48003;52.084;5.224;2023-12-22T07:20:47;23.6;;;4.0;;
36833;SDS011;48003;52.084;5.224;2023-12-22T07:22:23;22.9;;;4.1;;
36833;SDS011;48003;52.084;5.224;2023-12-22T07:23:59;28.3;;;4.8;;
36833;SDS011;48003;52.084;5.224;2023-12-22T07:25:36;27.2;;;4.8;;
36833;SDS011;48003;52.084;5.224;2023-12-22T07:28:48;30.5;;;4.91;;
36833;SDS011;48003;52.084;5.224;2023-12-22T07:30:25;22.6;;;4.3;;
36833;SDS011;48003;52.084;5.224;2023-12-22T07:32:01;26.5;;;4.8;;
36833;SDS011;48003;52.084;5.224;2023-12-22T07:35:13;25.1;;;4.7;;
36833;SDS011;48003;52.084;5.224;2023-12-22T07:36:49;25.0;;;5.3;;
36833;SDS011;48003;52.084;5.224;2023-12-22T07:38:25;21.7;;;4.2;;
36833;SDS011;48003;52.084;5.224;2023-12-22T07:41:40;22.4;;;3.8;;
36833;SDS011;48003;52.084;5.224;2023-12-22T07:43:16;23.1;;;4.2;;
36833;SDS011;48003;52.084;5.224;2023-12-22T07:44:53;27.7;;;4.2;;
36833;SDS011;48003;52.084;5.224;2023-12-22T07:46:29;26.8;;;4.2;;
36833;SDS011;48003;52.084;5.224;2023-12-22T07:49:41;26.9;;;4.0;;
36833;SDS011;48003;52.084;5.224;2023-12-22T07:51:17;23.9;;;4.3;;
36833;SDS011;48003;52.084;5.224;2023-12-22T07:52:53;28.3;;;4.8;;
36833;SDS011;48003;52.084;5.224;2023-12-22T07:56:06;26.4;;;4.61;;
36833;SDS011;48003;52.084;5.224;2023-12-22T07:57:41;33.5;;;5.0;;
36833;SDS011;48003;52.084;5.224;2023-12-22T07:59:18;30.3;;;5.2;;
36833;SDS011;48003;52.084;5.224;2023-12-22T08:02:30;31.4;;;5.0;;
36833;SDS011;48003;52.084;5.224;2023-12-22T08:04:06;29.0;;;4.5;;
36833;SDS011;48003;52.084;5.224;2023-12-22T08:05:41;27.3;;;4.5;;
36833;SDS011;48003;52.084;5.224;2023-12-22T08:08:53;23.8;;;4.61;;
36833;SDS011;48003;52.084;5.224;2023-12-22T08:10:30;22.6;;;3.9;;
36833;SDS011;48003;52.084;5.224;2023-12-22T08:12:06;31.6;;;4.8;;
36833;SDS011;48003;52.084;5.224;2023-12-22T08:13:43;23.6;;;3.9;;
36833;SDS011;48003;52.084;5.224;2023-12-22T08:16:58;26.6;;;4.5;;
36833;SDS011;48003;52.084;5.224;2023-12-22T08:18:34;27.7;;;4.2;;
36833;SDS011;48003;52.084;5.224;2023-12-22T08:20:10;24.6;;;3.8;;
36833;SDS011;48003;52.084;5.224;2023-12-22T08:23:22;21.7;;;3.7;;
36833;SDS011;48003;52.084;5.224;2023-12-22T08:24:59;14.9;;;2.5;;
36833;SDS011;48003;52.084;5.224;2023-12-22T08:26:38;15.8;;;2.4;;
36833;SDS011;48003;52.084;5.224;2023-12-22T08:28:14;12.1;;;2.5;;
36833;SDS011;48003;52.084;5.224;2023-12-22T08:31:25;17.0;;;2.5;;
36833;SDS011;48003;52.084;5.224;2023-12-22T08:33:02;10.8;;;2.31;;
36833;SDS011;48003;52.084;5.224;2023-12-22T08:34:38;14.6;;;2.5;;
36833;SDS011;48003;52.084;5.224;2023-12-22T08:37:51;14.1;;;2.7;;
36833;SDS011;48003;52.084;5.224;2023-12-22T08:39:27;13.8;;;2.9;;
36833;SDS011;48003;52.084;5.224;2023-12-22T08:41:03;18.8;;;2.9;;
36833;SDS011;48003;52.084;5.224;2023-12-22T08:44:15;16.4;;;2.5;;
36833;SDS011;48003;52.084;5.224;2023-12-22T08:45:51;15.6;;;2.5;;
36833;SDS011;48003;52.084;5.224;2023-12-22T08:47:27;19.91;;;2.7;;
36833;SDS011;48003;52.084;5.224;2023-12-22T08:50:40;16.61;;;3.0;;
36833;SDS011;48003;52.084;5.224;2023-12-22T08:52:16;14.4;;;3.1;;
36833;SDS011;48003;52.084;5.224;2023-12-22T08:53:52;18.41;;;3.3;;
36833;SDS011;48003;52.084;5.224;2023-12-22T08:55:29;14.0;;;3.0;;
36833;SDS011;48003;52.084;5.224;2023-12-22T08:58:41;14.9;;;2.5;;
36833;SDS011;48003;52.084;5.224;2023-12-22T09:00:17;13.2;;;2.8;;
36833;SDS011;48003;52.084;5.224;2023-12-22T09:01:53;18.91;;;2.9;;
36833;SDS011;48003;52.084;5.224;2023-12-22T09:05:10;15.5;;;2.4;;
36833;SDS011;48003;52.084;5.224;2023-12-22T09:06:46;15.3;;;2.9;;
36833;SDS011;48003;52.084;5.224;2023-12-22T09:08:22;19.5;;;3.0;;
36833;SDS011;48003;52.084;5.224;2023-12-22T09:11:38;10.8;;;2.6;;
36833;SDS011;48003;52.084;5.224;2023-12-22T09:13:15;11.9;;;2.31;;
36833;SDS011;48003;52.084;5.224;2023-12-22T09:14:51;10.4;;;1.9;;
36833;SDS011;48003;52.084;5.224;2023-12-22T09:16:27;12.0;;;2.0;;
36833;SDS011;48003;52.084;5.224;2023-12-22T09:19:40;10.7;;;2.31;;
36833;SDS011;48003;52.084;5.224;2023-12-22T09:21:16;10.6;;;2.21;;
36833;SDS011;48003;52.084;5.224;2023-12-22T09:22:53;12.9;;;2.21;;
36833;SDS011;48003;52.084;5.224;2023-12-22T09:26:05;15.4;;;2.31;;
36833;SDS011;48003;52.084;5.224;2023-12-22T09:27:41;14.8;;;2.6;;
36833;SDS011;48003;52.084;5.224;2023-12-22T09:29:17;15.7;;;2.6;;
36833;SDS011;48003;52.084;5.224;2023-12-22T09:32:30;12.8;;;2.6;;
36833;SDS011;48003;52.084;5.224;2023-12-22T09:34:07;18.7;;;2.31;;
36833;SDS011;48003;52.084;5.224;2023-12-22T09:35:43;8.31;;;1.6;;
36833;SDS011;48003;52.084;5.224;2023-12-22T09:37:19;10.5;;;1.5;;
36833;SDS011;48003;52.084;5.224;2023-12-22T09:40:31;13.0;;;2.0;;
36833;SDS011;48003;52.084;5.224;2023-12-22T09:42:07;10.8;;;1.7;;
36833;SDS011;48003;52.084;5.224;2023-12-22T09:43:43;11.9;;;2.1;;
36833;SDS011;48003;52.084;5.224;2023-12-22T09:47:03;9.4;;;1.8;;
36833;SDS011;48003;52.084;5.224;2023-12-22T09:48:41;10.5;;;1.9;;
36833;SDS011;48003;52.084;5.224;2023-12-22T09:50:18;10.9;;;1.5;;
36833;SDS011;48003;52.084;5.224;2023-12-22T09:51:56;10.0;;;1.6;;
36833;SDS011;48003;52.084;5.224;2023-12-22T09:55:11;11.5;;;1.9;;
36833;SDS011;48003;52.084;5.224;2023-12-22T09:56:52;7.9;;;1.3;;
36833;SDS011;48003;52.084;5.224;2023-12-22T09:58:29;8.9;;;1.6;;
36833;SDS011;48003;52.084;5.224;2023-12-22T10:01:45;9.9;;;1.7;;
36833;SDS011;48003;52.084;5.224;2023-12-22T10:03:24;5.9;;;1.2;;
36833;SDS011;48003;52.084;5.224;2023-12-22T10:05:01;12.9;;;2.0;;
36833;SDS011;48003;52.084;5.224;2023-12-22T10:06:39;11.6;;;1.9;;
36833;SDS011;48003;52.084;5.224;2023-12-22T10:09:54;7.1;;;1.3;;
36833;SDS011;48003;52.084;5.224;2023-12-22T10:11:32;11.1;;;1.5;;
36833;SDS011;48003;52.084;5.224;2023-12-22T10:13:09;12.7;;;1.5;;
36833;SDS011;48003;52.084;5.224;2023-12-22T10:16:23;7.3;;;1.11;;
36833;SDS011;48003;52.084;5.224;2023-12-22T10:17:59;7.8;;;1.2;;
36833;SDS011;48003;52.084;5.224;2023-12-22T10:19:35;6.7;;;1.4;;
36833;SDS011;48003;52.084;5.224;2023-12-22T10:21:11;8.81;;;1.3;;
36833;SDS011;48003;52.084;5.224;2023-12-22T10:24:44;7.6;;;1.11;;
36833;SDS011;48003;52.084;5.224;2023-12-22T10:26:20;10.1;;;1.3;;
36833;SDS011;48003;52.084;5.224;2023-12-22T10:27:57;11.9;;;1.3;;
36833;SDS011;48003;52.084;5.224;2023-12-22T10:31:10;8.0;;;1.4;;
36833;SDS011;48003;52.084;5.224;2023-12-22T10:32:46;7.9;;;1.2;;
36833;SDS011;48003;52.084;5.224;2023-12-22T10:34:22;7.1;;;1.4;;
36833;SDS011;48003;52.084;5.224;2023-12-22T10:35:58;7.4;;;1.3;;
36833;SDS011;48003;52.084;5.224;2023-12-22T10:39:11;9.4;;;1.7;;
36833;SDS011;48003;52.084;5.224;2023-12-22T10:40:48;11.7;;;1.3;;
36833;SDS011;48003;52.084;5.224;2023-12-22T10:42:24;10.8;;;1.7;;
36833;SDS011;48003;52.084;5.224;2023-12-22T10:45:39;9.0;;;1.4;;
36833;SDS011;48003;52.084;5.224;2023-12-22T10:47:17;9.4;;;1.6;;
36833;SDS011;48003;52.084;5.224;2023-12-22T10:48:53;5.9;;;1.3;;
36833;SDS011;48003;52.084;5.224;2023-12-22T10:50:29;5.11;;;1.3;;
36833;SDS011;48003;52.084;5.224;2023-12-22T10:53:41;6.9;;;1.2;;
36833;SDS011;48003;52.084;5.224;2023-12-22T10:55:18;9.1;;;1.5;;
36833;SDS011;48003;52.084;5.224;2023-12-22T10:56:57;10.6;;;1.7;;
36833;SDS011;48003;52.084;5.224;2023-12-22T11:00:12;8.71;;;1.5;;
36833;SDS011;48003;52.084;5.224;2023-12-22T11:01:51;7.8;;;1.3;;
36833;SDS011;48003;52.084;5.224;2023-12-22T11:03:27;13.3;;;1.7;;
36833;SDS011;48003;52.084;5.224;2023-12-22T11:05:13;10.9;;;1.4;;
36833;SDS011;48003;52.084;5.224;2023-12-22T11:08:33;12.5;;;1.5;;
36833;SDS011;48003;52.084;5.224;2023-12-22T11:10:12;8.0;;;1.7;;
36833;SDS011;48003;52.084;5.224;2023-12-22T11:11:49;10.9;;;2.1;;
36833;SDS011;48003;52.084;5.224;2023-12-22T11:15:04;9.4;;;1.6;;
36833;SDS011;48003;52.084;5.224;2023-12-22T11:16:42;11.0;;;1.8;;
36833;SDS011;48003;52.084;5.224;2023-12-22T11:18:19;12.0;;;1.5;;
36833;SDS011;48003;52.084;5.224;2023-12-22T11:19:57;7.7;;;1.7;;
36833;SDS011;48003;52.084;5.224;2023-12-22T11:23:12;8.9;;;1.7;;
36833;SDS011;48003;52.084;5.224;2023-12-22T11:24:52;8.4;;;1.7;;
36833;SDS011;48003;52.084;5.224;2023-12-22T11:26:30;10.21;;;1.6;;
36833;SDS011;48003;52.084;5.224;2023-12-22T11:28:08;10.7;;;1.3;;
36833;SDS011;48003;52.084;5.224;2023-12-22T11:31:26;8.81;;;1.5;;
36833;SDS011;48003;52.084;5.224;2023-12-22T11:33:04;14.3;;;2.0;;
36833;SDS011;48003;52.084;5.224;2023-12-22T11:34:41;10.21;;;1.4;;
36833;SDS011;48003;52.084;5.224;2023-12-22T11:37:55;8.31;;;1.4;;
36833;SDS011;48003;52.084;5.224;2023-12-22T11:39:35;9.0;;;2.0;;
36833;SDS011;48003;52.084;5.224;2023-12-22T11:41:12;7.4;;;1.4;;
36833;SDS011;48003;52.084;5.224;2023-12-22T11:42:53;10.21;;;1.8;;
36833;SDS011;48003;52.084;5.224;2023-12-22T11:46:07;5.8;;;1.4;;
36833;SDS011;48003;52.084;5.224;2023-12-22T11:47:45;9.31;;;1.4;;
36833;SDS011;48003;52.084;5.224;2023-12-22T11:49:28;8.4;;;1.5;;
36833;SDS011;48003;52.084;5.224;2023-12-22T11:52:50;9.21;;;1.6;;
36833;SDS011;48003;52.084;5.224;2023-12-22T11:54:46;10.1;;;1.5;;
36833;SDS011;48003;52.084;5.224;2023-12-22T11:56:23;8.5;;;1.3;;
36833;SDS011;48003;52.084;5.224;2023-12-22T11:58:08;7.5;;;1.5;;
36833;SDS011;48003;52.084;5.224;2023-12-22T12:00:19;7.2;;;1.5;;
36833;SDS011;48003;52.084;5.224;2023-12-22T12:02:14;8.5;;;1.5;;
36833;SDS011;48003;52.084;5.224;2023-12-22T12:03:51;7.1;;;1.2;;
36833;SDS011;48003;52.084;5.224;2023-12-22T12:07:36;9.21;;;1.7;;
36833;SDS011;48003;52.084;5.224;2023-12-22T12:09:13;7.8;;;1.4;;
36833;SDS011;48003;52.084;5.224;2023-12-22T12:10:51;4.41;;;1.2;;
36833;SDS011;48003;52.084;5.224;2023-12-22T12:12:28;8.4;;;1.6;;
36833;SDS011;48003;52.084;5.224;2023-12-22T12:15:47;11.0;;;1.4;;
36833;SDS011;48003;52.084;5.224;2023-12-22T12:17:26;9.4;;;1.4;;
36833;SDS011;48003;52.084;5.224;2023-12-22T12:19:02;9.0;;;1.7;;
36833;SDS011;48003;52.084;5.224;2023-12-22T12:20:38;9.1;;;1.4;;
36833;SDS011;48003;52.084;5.224;2023-12-22T12:23:50;5.6;;;1.11;;
36833;SDS011;48003;52.084;5.224;2023-12-22T12:25:28;5.7;;;1.4;;
36833;SDS011;48003;52.084;5.224;2023-12-22T12:27:05;6.8;;;1.7;;
36833;SDS011;48003;52.084;5.224;2023-12-22T12:30:21;13.0;;;1.6;;
36833;SDS011;48003;52.084;5.224;2023-12-22T12:32:02;11.8;;;1.8;;
36833;SDS011;48003;52.084;5.224;2023-12-22T12:33:39;8.5;;;1.2;;
36833;SDS011;48003;52.084;5.224;2023-12-22T12:35:17;7.2;;;1.3;;
36833;SDS011;48003;52.084;5.224;2023-12-22T12:38:36;8.4;;;1.4;;
36833;SDS011;48003;52.084;5.224;2023-12-22T12:40:18;6.2;;;1.4;;
36833;SDS011;48003;52.084;5.224;2023-12-22T12:41:59;10.7;;;1.4;;
36833;SDS011;48003;52.084;5.224;2023-12-22T12:43:36;8.71;;;1.6;;
36833;SDS011;48003;52.084;5.224;2023-12-22T12:47:10;11.2;;;1.7;;
36833;SDS011;48003;52.084;5.224;2023-12-22T12:48:47;10.3;;;1.6;;